sensor_id;sensor_type;location;lat;lon;timestamp;noise_LAeq;noise_LA_min;noise_LA_max;noise_LA01;noise_LA95
58251;Laerm;51449;51.676;5.812;2023-02-28T00:02:00;31.75;28.77;51.49;;
58251;Laerm;51449;51.676;5.812;2023-02-28T00:04:22;31.04;28.89;35.25;;
58251;Laerm;51449;51.676;5.812;2023-02-28T00:06:44;52.17;28.65;69.84;;
58251;Laerm;51449;51.676;5.812;2023-02-28T00:11:30;56.41;29.29;74.11;;
58251;Laerm;51449;51.676;5.812;2023-02-28T00:13:52;50.15;29.57;66.37;;
58251;Laerm;51449;51.676;5.812;2023-02-28T00:16:20;55.86;29.87;70.46;;
58251;Laerm;51449;51.676;5.812;2023-02-28T00:18:42;32.71;29.80;36.07;;
58251;Laerm;51449;51.676;5.812;2023-02-28T00:21:05;31.24;28.86;35.22;;
58251;Laerm;51449;51.676;5.812;2023-02-28T00:23:28;31.72;28.31;42.11;;
58251;Laerm;51449;51.676;5.812;2023-02-28T00:25:51;50.87;29.44;68.68;;
58251;Laerm;51449;51.676;5.812;2023-02-28T00:28:13;41.76;28.79;61.16;;
58251;Laerm;51449;51.676;5.812;2023-02-28T00:30:34;57.91;30.00;73.66;;
58251;Laerm;51449;51.676;5.812;2023-02-28T00:32:58;35.87;28.24;53.71;;
58251;Laerm;51449;51.676;5.812;2023-02-28T00:35:20;57.18;29.29;75.75;;
58251;Laerm;51449;51.676;5.812;2023-02-28T00:37:42;30.99;28.70;37.58;;
58251;Laerm;51449;51.676;5.812;2023-02-28T00:40:06;31.44;28.53;35.47;;
58251;Laerm;51449;51.676;5.812;2023-02-28T00:42:28;31.26;29.02;36.63;;
58251;Laerm;51449;51.676;5.812;2023-02-28T00:44:49;30.85;28.69;44.41;;
58251;Laerm;51449;51.676;5.812;2023-02-28T00:47:11;56.48;29.06;71.64;;
58251;Laerm;51449;51.676;5.812;2023-02-28T00:49:33;45.67;30.83;67.57;;
58251;Laerm;51449;51.676;5.812;2023-02-28T00:51:56;58.69;29.94;77.12;;
58251;Laerm;51449;51.676;5.812;2023-02-28T00:54:21;50.47;29.42;67.49;;
58251;Laerm;51449;51.676;5.812;2023-02-28T00:56:43;49.64;30.12;66.34;;
58251;Laerm;51449;51.676;5.812;2023-02-28T00:59:04;48.62;29.18;65.48;;
58251;Laerm;51449;51.676;5.812;2023-02-28T01:01:26;32.65;28.69;50.51;;
58251;Laerm;51449;51.676;5.812;2023-02-28T01:03:48;31.34;29.38;35.35;;
58251;Laerm;51449;51.676;5.812;2023-02-28T01:06:10;31.89;29.06;38.37;;
58251;Laerm;51449;51.676;5.812;2023-02-28T01:08:32;35.04;29.90;52.69;;
58251;Laerm;51449;51.676;5.812;2023-02-28T01:10:54;32.22;29.58;51.38;;
58251;Laerm;51449;51.676;5.812;2023-02-28T01:13:16;32.19;29.36;36.47;;
58251;Laerm;51449;51.676;5.812;2023-02-28T01:15:45;46.89;29.50;64.16;;
58251;Laerm;51449;51.676;5.812;2023-02-28T01:18:07;32.07;29.00;43.41;;
58251;Laerm;51449;51.676;5.812;2023-02-28T01:20:29;57.14;29.06;73.83;;
58251;Laerm;51449;51.676;5.812;2023-02-28T01:22:50;37.01;29.49;54.25;;
58251;Laerm;51449;51.676;5.812;2023-02-28T01:25:12;32.47;29.64;41.60;;
58251;Laerm;51449;51.676;5.812;2023-02-28T01:27:34;31.98;29.47;36.15;;
58251;Laerm;51449;51.676;5.812;2023-02-28T01:29:57;46.36;30.30;64.03;;
58251;Laerm;51449;51.676;5.812;2023-02-28T01:32:18;48.56;31.55;65.55;;
58251;Laerm;51449;51.676;5.812;2023-02-28T01:34:40;57.00;34.35;73.53;;
58251;Laerm;51449;51.676;5.812;2023-02-28T01:37:02;60.13;32.36;84.95;;
58251;Laerm;51449;51.676;5.812;2023-02-28T01:39:26;36.53;32.78;42.78;;
58251;Laerm;51449;51.676;5.812;2023-02-28T01:41:48;35.45;31.25;42.79;;
58251;Laerm;51449;51.676;5.812;2023-02-28T01:47:23;37.98;30.26;49.84;;
58251;Laerm;51449;51.676;5.812;2023-02-28T01:49:48;51.85;31.58;68.12;;
58251;Laerm;51449;51.676;5.812;2023-02-28T01:52:11;37.32;30.82;51.16;;
58251;Laerm;51449;51.676;5.812;2023-02-28T01:54:40;32.23;29.85;43.52;;
58251;Laerm;51449;51.676;5.812;2023-02-28T01:57:12;49.83;29.32;66.22;;
58251;Laerm;51449;51.676;5.812;2023-02-28T01:59:43;56.81;29.77;74.58;;
58251;Laerm;51449;51.676;5.812;2023-02-28T02:02:15;47.78;29.46;64.57;;
58251;Laerm;51449;51.676;5.812;2023-02-28T02:04:51;56.86;31.58;73.97;;
58251;Laerm;51449;51.676;5.812;2023-02-28T02:07:15;33.35;30.70;41.95;;
58251;Laerm;51449;51.676;5.812;2023-02-28T02:09:39;33.02;29.93;36.20;;
58251;Laerm;51449;51.676;5.812;2023-02-28T02:12:20;57.55;31.94;72.32;;
58251;Laerm;51449;51.676;5.812;2023-02-28T02:15:16;55.48;30.05;70.33;;
58251;Laerm;51449;51.676;5.812;2023-02-28T02:17:48;58.09;30.18;73.17;;
58251;Laerm;51449;51.676;5.812;2023-02-28T02:20:46;32.74;29.49;37.01;;
58251;Laerm;51449;51.676;5.812;2023-02-28T02:23:58;49.73;29.25;70.01;;
58251;Laerm;51449;51.676;5.812;2023-02-28T02:26:58;32.94;29.61;44.60;;
58251;Laerm;51449;51.676;5.812;2023-02-28T02:38:35;57.20;29.73;73.04;;
58251;Laerm;51449;51.676;5.812;2023-02-28T02:41:14;39.07;31.10;54.73;;
58251;Laerm;51449;51.676;5.812;2023-02-28T02:43:58;54.27;31.42;70.44;;
58251;Laerm;51449;51.676;5.812;2023-02-28T02:46:34;57.36;30.27;74.16;;
58251;Laerm;51449;51.676;5.812;2023-02-28T02:49:04;49.77;29.05;68.46;;
58251;Laerm;51449;51.676;5.812;2023-02-28T02:51:32;56.98;29.20;73.88;;
58251;Laerm;51449;51.676;5.812;2023-02-28T02:56:31;50.58;30.14;67.92;;
58251;Laerm;51449;51.676;5.812;2023-02-28T02:59:03;50.59;29.51;65.72;;
58251;Laerm;51449;51.676;5.812;2023-02-28T03:01:28;34.33;28.37;51.55;;
58251;Laerm;51449;51.676;5.812;2023-02-28T03:04:16;50.40;29.28;69.04;;
58251;Laerm;51449;51.676;5.812;2023-02-28T03:06:41;53.68;29.42;68.74;;
58251;Laerm;51449;51.676;5.812;2023-02-28T03:09:03;54.99;30.95;70.38;;
58251;Laerm;51449;51.676;5.812;2023-02-28T03:11:26;56.68;31.73;71.07;;
58251;Laerm;51449;51.676;5.812;2023-02-28T03:14:06;46.61;31.40;63.63;;
58251;Laerm;51449;51.676;5.812;2023-02-28T03:16:56;57.02;31.34;73.44;;
58251;Laerm;51449;51.676;5.812;2023-02-28T03:27:30;61.04;32.65;74.53;;
58251;Laerm;51449;51.676;5.812;2023-02-28T03:30:09;51.18;31.02;68.95;;
58251;Laerm;51449;51.676;5.812;2023-02-28T03:32:56;58.85;30.35;71.83;;
58251;Laerm;51449;51.676;5.812;2023-02-28T03:35:30;58.24;30.43;76.91;;
58251;Laerm;51449;51.676;5.812;2023-02-28T03:38:05;56.76;31.16;75.55;;
58251;Laerm;51449;51.676;5.812;2023-02-28T03:40:33;54.98;31.32;71.24;;
58251;Laerm;51449;51.676;5.812;2023-02-28T03:43:07;56.59;28.80;72.14;;
58251;Laerm;51449;51.676;5.812;2023-02-28T03:45:36;55.01;29.76;70.56;;
58251;Laerm;51449;51.676;5.812;2023-02-28T03:48:24;52.75;29.95;68.30;;
58251;Laerm;51449;51.676;5.812;2023-02-28T03:50:55;55.87;32.01;71.54;;
58251;Laerm;51449;51.676;5.812;2023-02-28T03:53:29;54.23;30.44;71.21;;
58251;Laerm;51449;51.676;5.812;2023-02-28T03:56:03;54.19;32.22;70.38;;
58251;Laerm;51449;51.676;5.812;2023-02-28T04:01:19;60.27;33.23;74.99;;
58251;Laerm;51449;51.676;5.812;2023-02-28T04:03:41;57.25;34.29;73.32;;
58251;Laerm;51449;51.676;5.812;2023-02-28T04:06:07;59.98;33.26;74.23;;
58251;Laerm;51449;51.676;5.812;2023-02-28T04:08:29;46.37;29.50;63.92;;
58251;Laerm;51449;51.676;5.812;2023-02-28T04:11:04;61.79;33.31;75.53;;
58251;Laerm;51449;51.676;5.812;2023-02-28T04:13:28;61.48;35.13;73.52;;
58251;Laerm;51449;51.676;5.812;2023-02-28T04:15:49;51.59;31.96;65.26;;
58251;Laerm;51449;51.676;5.812;2023-02-28T04:18:11;54.55;32.50;67.11;;
58251;Laerm;51449;51.676;5.812;2023-02-28T04:20:32;60.16;36.62;72.04;;
58251;Laerm;51449;51.676;5.812;2023-02-28T04:22:54;62.02;34.69;77.29;;
58251;Laerm;51449;51.676;5.812;2023-02-28T04:25:16;63.02;34.16;76.15;;
58251;Laerm;51449;51.676;5.812;2023-02-28T04:27:37;58.48;37.01;73.57;;
58251;Laerm;51449;51.676;5.812;2023-02-28T04:29:59;60.23;35.74;72.66;;
58251;Laerm;51449;51.676;5.812;2023-02-28T04:32:21;61.29;34.27;75.14;;
58251;Laerm;51449;51.676;5.812;2023-02-28T04:34:43;63.69;41.30;73.03;;
58251;Laerm;51449;51.676;5.812;2023-02-28T04:37:05;58.95;35.79;72.38;;
58251;Laerm;51449;51.676;5.812;2023-02-28T04:39:36;53.38;31.92;66.59;;
58251;Laerm;51449;51.676;5.812;2023-02-28T04:41:58;57.77;33.63;72.30;;
58251;Laerm;51449;51.676;5.812;2023-02-28T04:44:19;60.06;37.99;73.02;;
58251;Laerm;51449;51.676;5.812;2023-02-28T04:46:42;61.86;35.24;74.46;;
58251;Laerm;51449;51.676;5.812;2023-02-28T04:49:04;62.18;36.44;75.86;;
58251;Laerm;51449;51.676;5.812;2023-02-28T04:51:26;60.52;35.82;72.90;;
58251;Laerm;51449;51.676;5.812;2023-02-28T04:53:50;60.69;38.56;72.94;;
58251;Laerm;51449;51.676;5.812;2023-02-28T04:56:14;62.09;34.14;76.80;;
58251;Laerm;51449;51.676;5.812;2023-02-28T04:58:37;66.06;36.54;79.01;;
58251;Laerm;51449;51.676;5.812;2023-02-28T05:01:32;62.72;40.07;72.78;;
58251;Laerm;51449;51.676;5.812;2023-02-28T05:03:58;61.39;38.63;74.28;;
58251;Laerm;51449;51.676;5.812;2023-02-28T05:06:24;58.45;34.10;69.54;;
58251;Laerm;51449;51.676;5.812;2023-02-28T05:08:47;62.67;36.54;77.06;;
58251;Laerm;51449;51.676;5.812;2023-02-28T05:13:37;60.89;39.20;72.35;;
58251;Laerm;51449;51.676;5.812;2023-02-28T05:15:59;66.27;39.92;77.68;;
58251;Laerm;51449;51.676;5.812;2023-02-28T05:18:21;65.87;42.70;77.42;;
58251;Laerm;51449;51.676;5.812;2023-02-28T05:20:43;63.15;40.17;75.50;;
58251;Laerm;51449;51.676;5.812;2023-02-28T05:23:04;61.66;40.95;83.50;;
58251;Laerm;51449;51.676;5.812;2023-02-28T05:25:26;63.97;40.21;76.30;;
58251;Laerm;51449;51.676;5.812;2023-02-28T05:27:48;60.01;36.29;73.34;;
58251;Laerm;51449;51.676;5.812;2023-02-28T05:30:11;68.12;46.78;79.87;;
58251;Laerm;51449;51.676;5.812;2023-02-28T05:32:32;64.52;44.80;75.26;;
58251;Laerm;51449;51.676;5.812;2023-02-28T05:34:54;63.49;47.72;75.03;;
58251;Laerm;51449;51.676;5.812;2023-02-28T05:37:16;64.80;44.67;73.29;;
58251;Laerm;51449;51.676;5.812;2023-02-28T05:39:38;63.53;42.03;72.36;;
58251;Laerm;51449;51.676;5.812;2023-02-28T05:42:00;67.64;46.30;79.03;;
58251;Laerm;51449;51.676;5.812;2023-02-28T05:44:22;67.75;46.69;79.12;;
58251;Laerm;51449;51.676;5.812;2023-02-28T05:46:43;66.88;47.59;78.99;;
58251;Laerm;51449;51.676;5.812;2023-02-28T05:49:05;65.41;41.65;79.49;;
58251;Laerm;51449;51.676;5.812;2023-02-28T05:51:27;67.23;42.42;82.01;;
58251;Laerm;51449;51.676;5.812;2023-02-28T05:53:49;65.78;40.19;75.49;;
58251;Laerm;51449;51.676;5.812;2023-02-28T05:56:11;64.66;43.23;74.02;;
58251;Laerm;51449;51.676;5.812;2023-02-28T05:58:33;63.40;41.97;77.33;;
58251;Laerm;51449;51.676;5.812;2023-02-28T06:00:58;70.78;45.99;89.40;;
58251;Laerm;51449;51.676;5.812;2023-02-28T06:03:20;66.74;51.98;79.03;;
58251;Laerm;51449;51.676;5.812;2023-02-28T06:05:41;64.43;43.09;78.06;;
58251;Laerm;51449;51.676;5.812;2023-02-28T06:08:03;66.92;44.21;90.66;;
58251;Laerm;51449;51.676;5.812;2023-02-28T06:10:25;66.02;42.17;77.79;;
58251;Laerm;51449;51.676;5.812;2023-02-28T06:12:47;65.75;46.92;74.22;;
58251;Laerm;51449;51.676;5.812;2023-02-28T06:15:14;66.40;48.55;78.36;;
58251;Laerm;51449;51.676;5.812;2023-02-28T06:17:36;67.79;50.96;79.20;;
58251;Laerm;51449;51.676;5.812;2023-02-28T06:19:57;65.46;46.29;81.27;;
58251;Laerm;51449;51.676;5.812;2023-02-28T06:22:19;67.04;47.38;75.84;;
58251;Laerm;51449;51.676;5.812;2023-02-28T06:24:41;65.69;45.54;77.46;;
58251;Laerm;51449;51.676;5.812;2023-02-28T06:27:02;65.68;48.91;74.22;;
58251;Laerm;51449;51.676;5.812;2023-02-28T06:29:27;66.10;48.73;77.84;;
58251;Laerm;51449;51.676;5.812;2023-02-28T06:31:48;65.22;50.64;73.53;;
58251;Laerm;51449;51.676;5.812;2023-02-28T06:34:11;66.00;49.85;76.28;;
58251;Laerm;51449;51.676;5.812;2023-02-28T06:36:35;67.49;42.54;89.41;;
58251;Laerm;51449;51.676;5.812;2023-02-28T06:38:57;66.19;46.44;73.11;;
58251;Laerm;51449;51.676;5.812;2023-02-28T06:41:19;66.48;45.52;79.45;;
58251;Laerm;51449;51.676;5.812;2023-02-28T06:43:41;67.40;48.10;78.58;;
58251;Laerm;51449;51.676;5.812;2023-02-28T06:46:06;67.35;46.07;78.60;;
58251;Laerm;51449;51.676;5.812;2023-02-28T06:48:28;64.98;43.71;72.85;;
58251;Laerm;51449;51.676;5.812;2023-02-28T06:50:50;66.50;44.07;75.88;;
58251;Laerm;51449;51.676;5.812;2023-02-28T06:53:12;66.11;50.81;75.43;;
58251;Laerm;51449;51.676;5.812;2023-02-28T06:55:34;64.36;44.65;75.00;;
58251;Laerm;51449;51.676;5.812;2023-02-28T06:57:57;66.40;44.99;79.69;;
58251;Laerm;51449;51.676;5.812;2023-02-28T07:00:19;66.13;46.53;74.45;;
58251;Laerm;51449;51.676;5.812;2023-02-28T07:02:41;67.62;49.66;76.78;;
58251;Laerm;51449;51.676;5.812;2023-02-28T07:05:04;65.06;48.31;72.89;;
58251;Laerm;51449;51.676;5.812;2023-02-28T07:07:26;66.37;43.63;75.85;;
58251;Laerm;51449;51.676;5.812;2023-02-28T07:09:48;64.58;45.63;75.69;;
58251;Laerm;51449;51.676;5.812;2023-02-28T07:12:10;65.90;46.52;74.41;;
58251;Laerm;51449;51.676;5.812;2023-02-28T07:14:31;64.28;44.20;77.86;;
58251;Laerm;51449;51.676;5.812;2023-02-28T07:16:53;65.31;45.13;76.84;;
58251;Laerm;51449;51.676;5.812;2023-02-28T07:19:15;65.20;44.94;77.65;;
58251;Laerm;51449;51.676;5.812;2023-02-28T07:21:36;62.75;41.66;74.73;;
58251;Laerm;51449;51.676;5.812;2023-02-28T07:23:59;65.35;43.65;79.28;;
58251;Laerm;51449;51.676;5.812;2023-02-28T07:26:20;67.24;45.47;81.68;;
58251;Laerm;51449;51.676;5.812;2023-02-28T07:28:44;65.15;43.70;75.17;;
58251;Laerm;51449;51.676;5.812;2023-02-28T07:31:07;67.18;46.62;80.69;;
58251;Laerm;51449;51.676;5.812;2023-02-28T07:33:29;82.03;44.49;102.80;;
58251;Laerm;51449;51.676;5.812;2023-02-28T07:35:51;66.64;48.55;76.53;;
58251;Laerm;51449;51.676;5.812;2023-02-28T07:38:13;64.37;44.05;73.47;;
58251;Laerm;51449;51.676;5.812;2023-02-28T07:40:36;66.35;40.33;79.83;;
58251;Laerm;51449;51.676;5.812;2023-02-28T07:43:00;64.91;50.80;75.84;;
58251;Laerm;51449;51.676;5.812;2023-02-28T07:45:22;65.44;44.63;74.75;;
58251;Laerm;51449;51.676;5.812;2023-02-28T07:47:44;65.02;43.84;80.11;;
58251;Laerm;51449;51.676;5.812;2023-02-28T07:50:10;63.46;42.31;73.01;;
58251;Laerm;51449;51.676;5.812;2023-02-28T07:52:32;63.65;42.06;73.58;;
58251;Laerm;51449;51.676;5.812;2023-02-28T07:54:53;65.61;44.18;76.88;;
58251;Laerm;51449;51.676;5.812;2023-02-28T07:57:15;65.26;41.79;75.18;;
58251;Laerm;51449;51.676;5.812;2023-02-28T07:59:37;64.22;40.71;75.46;;
58251;Laerm;51449;51.676;5.812;2023-02-28T08:01:59;64.60;41.69;74.26;;
58251;Laerm;51449;51.676;5.812;2023-02-28T08:04:20;63.97;47.15;74.19;;
58251;Laerm;51449;51.676;5.812;2023-02-28T08:06:42;63.84;41.43;75.48;;
58251;Laerm;51449;51.676;5.812;2023-02-28T08:09:04;63.45;42.27;75.69;;
58251;Laerm;51449;51.676;5.812;2023-02-28T08:11:25;65.01;43.54;74.17;;
58251;Laerm;51449;51.676;5.812;2023-02-28T08:13:47;62.57;43.11;73.32;;
58251;Laerm;51449;51.676;5.812;2023-02-28T08:16:10;63.04;42.91;72.00;;
58251;Laerm;51449;51.676;5.812;2023-02-28T08:18:33;62.69;38.87;75.26;;
58251;Laerm;51449;51.676;5.812;2023-02-28T08:20:55;67.15;39.68;79.77;;
58251;Laerm;51449;51.676;5.812;2023-02-28T08:23:18;64.41;41.31;75.15;;
58251;Laerm;51449;51.676;5.812;2023-02-28T08:25:40;63.59;43.42;76.15;;
58251;Laerm;51449;51.676;5.812;2023-02-28T08:28:02;63.95;40.04;80.40;;
58251;Laerm;51449;51.676;5.812;2023-02-28T08:30:23;63.76;43.78;72.40;;
58251;Laerm;51449;51.676;5.812;2023-02-28T08:32:45;64.74;43.90;75.84;;
58251;Laerm;51449;51.676;5.812;2023-02-28T08:35:08;63.84;48.00;74.42;;
58251;Laerm;51449;51.676;5.812;2023-02-28T08:37:30;64.33;46.92;74.30;;
58251;Laerm;51449;51.676;5.812;2023-02-28T08:39:52;65.39;41.74;82.72;;
58251;Laerm;51449;51.676;5.812;2023-02-28T08:42:16;63.18;38.26;81.99;;
58251;Laerm;51449;51.676;5.812;2023-02-28T08:44:38;61.99;40.12;71.24;;
58251;Laerm;51449;51.676;5.812;2023-02-28T08:47:00;61.40;40.58;75.55;;
58251;Laerm;51449;51.676;5.812;2023-02-28T08:49:21;65.05;37.51;75.41;;
58251;Laerm;51449;51.676;5.812;2023-02-28T08:51:43;67.32;42.86;81.10;;
58251;Laerm;51449;51.676;5.812;2023-02-28T08:54:04;65.36;38.05;85.40;;
58251;Laerm;51449;51.676;5.812;2023-02-28T08:56:28;63.25;43.94;77.51;;
58251;Laerm;51449;51.676;5.812;2023-02-28T08:58:50;58.06;35.07;73.46;;
58251;Laerm;51449;51.676;5.812;2023-02-28T09:01:19;65.38;42.85;78.85;;
58251;Laerm;51449;51.676;5.812;2023-02-28T09:03:42;64.16;42.49;73.10;;
58251;Laerm;51449;51.676;5.812;2023-02-28T09:06:04;63.18;39.94;76.25;;
58251;Laerm;51449;51.676;5.812;2023-02-28T09:08:29;64.40;42.94;75.78;;
58251;Laerm;51449;51.676;5.812;2023-02-28T09:10:51;63.80;38.51;73.48;;
58251;Laerm;51449;51.676;5.812;2023-02-28T09:13:13;61.85;37.97;74.15;;
58251;Laerm;51449;51.676;5.812;2023-02-28T09:15:38;60.47;36.83;72.51;;
58251;Laerm;51449;51.676;5.812;2023-02-28T09:17:59;63.27;39.84;77.40;;
58251;Laerm;51449;51.676;5.812;2023-02-28T09:20:21;67.55;42.44;92.01;;
58251;Laerm;51449;51.676;5.812;2023-02-28T09:22:42;58.81;37.71;72.18;;
58251;Laerm;51449;51.676;5.812;2023-02-28T09:25:04;64.42;42.64;77.39;;
58251;Laerm;51449;51.676;5.812;2023-02-28T09:27:26;63.33;41.23;75.61;;
58251;Laerm;51449;51.676;5.812;2023-02-28T09:29:48;63.17;39.77;73.82;;
58251;Laerm;51449;51.676;5.812;2023-02-28T09:32:10;63.58;42.52;74.78;;
58251;Laerm;51449;51.676;5.812;2023-02-28T09:34:31;61.41;37.60;72.82;;
58251;Laerm;51449;51.676;5.812;2023-02-28T09:36:53;61.66;39.97;74.49;;
58251;Laerm;51449;51.676;5.812;2023-02-28T09:39:16;60.76;38.84;74.75;;
58251;Laerm;51449;51.676;5.812;2023-02-28T09:41:43;62.62;40.48;72.87;;
58251;Laerm;51449;51.676;5.812;2023-02-28T09:44:22;65.42;43.33;75.11;;
58251;Laerm;51449;51.676;5.812;2023-02-28T09:46:51;62.54;37.99;74.11;;
58251;Laerm;51449;51.676;5.812;2023-02-28T09:49:22;64.98;37.00;79.25;;
58251;Laerm;51449;51.676;5.812;2023-02-28T09:54:22;63.47;41.26;77.34;;
58251;Laerm;51449;51.676;5.812;2023-02-28T09:56:50;64.44;42.21;77.58;;
58251;Laerm;51449;51.676;5.812;2023-02-28T09:59:27;63.71;41.82;81.36;;
58251;Laerm;51449;51.676;5.812;2023-02-28T10:02:39;63.33;40.44;74.75;;
58251;Laerm;51449;51.676;5.812;2023-02-28T10:05:12;64.15;41.61;74.84;;
58251;Laerm;51449;51.676;5.812;2023-02-28T10:07:58;65.50;46.46;87.28;;
58251;Laerm;51449;51.676;5.812;2023-02-28T10:10:30;62.59;41.55;73.81;;
58251;Laerm;51449;51.676;5.812;2023-02-28T10:12:58;63.87;41.95;76.20;;
58251;Laerm;51449;51.676;5.812;2023-02-28T10:15:25;64.76;41.81;79.24;;
58251;Laerm;51449;51.676;5.812;2023-02-28T10:17:57;63.93;45.99;74.54;;
58251;Laerm;51449;51.676;5.812;2023-02-28T10:20:34;67.12;43.58;77.29;;
58251;Laerm;51449;51.676;5.812;2023-02-28T10:23:26;63.59;41.97;75.40;;
58251;Laerm;51449;51.676;5.812;2023-02-28T10:26:09;64.06;39.85;76.57;;
58251;Laerm;51449;51.676;5.812;2023-02-28T10:28:33;64.21;41.37;73.21;;
58251;Laerm;51449;51.676;5.812;2023-02-28T10:30:56;64.08;39.00;76.32;;
58251;Laerm;51449;51.676;5.812;2023-02-28T10:33:34;65.90;41.25;75.24;;
58251;Laerm;51449;51.676;5.812;2023-02-28T10:35:56;64.04;39.06;79.86;;
58251;Laerm;51449;51.676;5.812;2023-02-28T10:38:37;62.65;40.09;73.88;;
58251;Laerm;51449;51.676;5.812;2023-02-28T10:41:12;61.85;39.88;80.42;;
58251;Laerm;51449;51.676;5.812;2023-02-28T10:43:35;64.19;39.94;80.14;;
58251;Laerm;51449;51.676;5.812;2023-02-28T10:48:30;63.35;45.68;79.39;;
58251;Laerm;51449;51.676;5.812;2023-02-28T10:50:55;62.40;39.95;73.93;;
58251;Laerm;51449;51.676;5.812;2023-02-28T10:58:25;63.24;38.65;83.70;;
58251;Laerm;51449;51.676;5.812;2023-02-28T11:00:48;65.26;38.99;78.81;;
58251;Laerm;51449;51.676;5.812;2023-02-28T11:03:28;64.99;39.94;73.73;;
58251;Laerm;51449;51.676;5.812;2023-02-28T11:05:51;64.38;42.51;75.80;;
58251;Laerm;51449;51.676;5.812;2023-02-28T11:08:16;62.66;38.44;75.86;;
58251;Laerm;51449;51.676;5.812;2023-02-28T11:10:38;64.57;40.89;79.08;;
58251;Laerm;51449;51.676;5.812;2023-02-28T11:13:01;63.36;42.11;77.08;;
58251;Laerm;51449;51.676;5.812;2023-02-28T11:15:30;63.60;37.83;79.74;;
58251;Laerm;51449;51.676;5.812;2023-02-28T11:18:28;67.14;40.54;85.17;;
58251;Laerm;51449;51.676;5.812;2023-02-28T11:20:54;63.19;40.60;80.44;;
58251;Laerm;51449;51.676;5.812;2023-02-28T11:23:19;63.31;40.83;77.64;;
58251;Laerm;51449;51.676;5.812;2023-02-28T11:25:49;66.87;45.25;92.81;;
58251;Laerm;51449;51.676;5.812;2023-02-28T11:28:36;65.91;45.55;78.75;;
58251;Laerm;51449;51.676;5.812;2023-02-28T11:33:54;65.02;44.08;78.41;;
58251;Laerm;51449;51.676;5.812;2023-02-28T11:36:30;62.92;42.86;75.84;;
58251;Laerm;51449;51.676;5.812;2023-02-28T11:38:59;63.77;40.53;75.17;;
58251;Laerm;51449;51.676;5.812;2023-02-28T11:47:42;64.49;36.36;82.48;;
58251;Laerm;51449;51.676;5.812;2023-02-28T11:50:34;63.11;41.77;72.78;;
58251;Laerm;51449;51.676;5.812;2023-02-28T11:53:14;64.30;39.91;81.65;;
58251;Laerm;51449;51.676;5.812;2023-02-28T11:56:06;62.58;38.94;73.51;;
58251;Laerm;51449;51.676;5.812;2023-02-28T11:58:44;66.80;44.68;94.59;;
58251;Laerm;51449;51.676;5.812;2023-02-28T12:01:43;65.75;39.39;79.38;;
58251;Laerm;51449;51.676;5.812;2023-02-28T12:04:24;58.22;35.70;72.46;;
58251;Laerm;51449;51.676;5.812;2023-02-28T12:07:42;64.72;38.06;76.02;;
58251;Laerm;51449;51.676;5.812;2023-02-28T12:10:25;62.11;40.89;73.58;;
58251;Laerm;51449;51.676;5.812;2023-02-28T12:16:33;63.96;40.57;74.61;;
58251;Laerm;51449;51.676;5.812;2023-02-28T12:18:53;63.84;38.97;74.50;;
58251;Laerm;51449;51.676;5.812;2023-02-28T12:21:49;63.11;40.19;73.44;;
58251;Laerm;51449;51.676;5.812;2023-02-28T12:24:52;61.39;39.45;76.90;;
58251;Laerm;51449;51.676;5.812;2023-02-28T12:27:22;63.89;43.91;77.26;;
58251;Laerm;51449;51.676;5.812;2023-02-28T12:29:52;62.74;37.84;77.07;;
58251;Laerm;51449;51.676;5.812;2023-02-28T12:32:38;66.25;40.90;77.32;;
58251;Laerm;51449;51.676;5.812;2023-02-28T12:35:12;63.97;40.79;74.37;;
58251;Laerm;51449;51.676;5.812;2023-02-28T12:37:44;65.05;41.80;78.51;;
58251;Laerm;51449;51.676;5.812;2023-02-28T12:40:19;67.55;44.37;79.68;;
58251;Laerm;51449;51.676;5.812;2023-02-28T12:43:03;66.27;41.04;76.50;;
58251;Laerm;51449;51.676;5.812;2023-02-28T12:45:52;62.19;41.89;79.38;;
58251;Laerm;51449;51.676;5.812;2023-02-28T12:48:25;66.58;43.10;79.83;;
58251;Laerm;51449;51.676;5.812;2023-02-28T12:50:50;61.23;41.54;79.95;;
58251;Laerm;51449;51.676;5.812;2023-02-28T12:53:28;65.38;42.28;78.36;;
58251;Laerm;51449;51.676;5.812;2023-02-28T12:56:23;64.37;41.39;78.81;;
58251;Laerm;51449;51.676;5.812;2023-02-28T12:59:01;62.86;41.81;81.47;;
58251;Laerm;51449;51.676;5.812;2023-02-28T13:04:39;65.73;42.56;78.20;;
58251;Laerm;51449;51.676;5.812;2023-02-28T13:10:43;64.40;44.61;75.94;;
58251;Laerm;51449;51.676;5.812;2023-02-28T13:13:17;67.11;45.27;78.69;;
58251;Laerm;51449;51.676;5.812;2023-02-28T13:15:39;63.70;40.71;77.86;;
58251;Laerm;51449;51.676;5.812;2023-02-28T13:18:40;64.13;41.16;79.39;;
58251;Laerm;51449;51.676;5.812;2023-02-28T13:21:07;65.93;43.12;75.65;;
58251;Laerm;51449;51.676;5.812;2023-02-28T13:26:08;62.33;38.73;74.44;;
58251;Laerm;51449;51.676;5.812;2023-02-28T13:31:10;63.48;43.62;75.79;;
58251;Laerm;51449;51.676;5.812;2023-02-28T13:38:46;63.82;43.77;77.44;;
58251;Laerm;51449;51.676;5.812;2023-02-28T13:44:12;62.55;39.83;74.12;;
58251;Laerm;51449;51.676;5.812;2023-02-28T13:51:49;64.28;49.60;81.80;;
58251;Laerm;51449;51.676;5.812;2023-02-28T14:00:39;64.72;42.77;74.91;;
58251;Laerm;51449;51.676;5.812;2023-02-28T14:06:37;65.78;43.11;76.14;;
58251;Laerm;51449;51.676;5.812;2023-02-28T14:11:43;64.52;43.61;75.89;;
58251;Laerm;51449;51.676;5.812;2023-02-28T14:14:09;60.01;41.78;77.51;;
58251;Laerm;51449;51.676;5.812;2023-02-28T14:16:44;64.48;43.60;79.54;;
58251;Laerm;51449;51.676;5.812;2023-02-28T14:19:15;62.43;41.42;75.94;;
58251;Laerm;51449;51.676;5.812;2023-02-28T14:30:07;62.97;43.04;74.52;;
58251;Laerm;51449;51.676;5.812;2023-02-28T14:33:00;65.24;46.44;76.47;;
58251;Laerm;51449;51.676;5.812;2023-02-28T14:37:48;65.72;45.64;75.26;;
58251;Laerm;51449;51.676;5.812;2023-02-28T14:40:17;65.89;42.24;85.07;;
58251;Laerm;51449;51.676;5.812;2023-02-28T14:42:48;65.23;41.98;76.66;;
58251;Laerm;51449;51.676;5.812;2023-02-28T14:45:20;64.15;41.72;74.05;;
58251;Laerm;51449;51.676;5.812;2023-02-28T14:47:42;65.66;44.67;77.69;;
58251;Laerm;51449;51.676;5.812;2023-02-28T14:50:05;68.16;47.41;81.34;;
58251;Laerm;51449;51.676;5.812;2023-02-28T14:52:30;63.57;40.18;74.93;;
58251;Laerm;51449;51.676;5.812;2023-02-28T14:54:56;63.48;39.08;73.70;;
58251;Laerm;51449;51.676;5.812;2023-02-28T14:57:31;64.93;46.35;72.42;;
58251;Laerm;51449;51.676;5.812;2023-02-28T15:00:27;62.42;38.24;74.51;;
58251;Laerm;51449;51.676;5.812;2023-02-28T15:02:51;66.44;45.20;76.39;;
58251;Laerm;51449;51.676;5.812;2023-02-28T15:07:39;62.60;41.35;74.42;;
58251;Laerm;51449;51.676;5.812;2023-02-28T15:10:23;66.00;44.02;77.52;;
58251;Laerm;51449;51.676;5.812;2023-02-28T15:12:53;66.24;44.05;74.37;;
58251;Laerm;51449;51.676;5.812;2023-02-28T15:15:19;66.67;45.74;75.02;;
58251;Laerm;51449;51.676;5.812;2023-02-28T15:17:59;67.58;43.67;80.17;;
58251;Laerm;51449;51.676;5.812;2023-02-28T15:20:24;66.59;43.28;87.41;;
58251;Laerm;51449;51.676;5.812;2023-02-28T15:22:52;79.62;47.59;98.53;;
58251;Laerm;51449;51.676;5.812;2023-02-28T15:25:21;63.14;45.19;72.74;;
58251;Laerm;51449;51.676;5.812;2023-02-28T15:27:55;64.71;42.35;78.57;;
58251;Laerm;51449;51.676;5.812;2023-02-28T15:30:31;65.40;45.25;78.53;;
58251;Laerm;51449;51.676;5.812;2023-02-28T15:33:20;66.37;44.24;81.40;;